Time;durP1;ratioP1;P1;durP2;ratioP2;P2;SDS_P1;SDS_P2;PMS_P1;PMS_P2;Temp;Humidity;BMP_temperature;BMP_pressure;BME280_temperature;BME280_humidity;BME280_pressure;Samples;Min_cycle;Max_cycle;Signal;HPM_P1;HPM_P2
2023/06/25 00:01:00;;;;;;;15.18;9.63;;;21.40;99.90;;;;;;4985883;28;20206;-79
2023/06/25 00:04:00;;;;;;;14.63;9.73;;;21.40;99.90;;;;;;4992069;28;20300;-78
2023/06/25 00:06:58;;;;;;;16.75;10.32;;;21.40;99.90;;;;;;4942203;28;20237;-76
2023/06/25 00:10:17;;;;;;;16.48;10.73;;;21.30;99.90;;;;;;4895822;29;20260;-77
2023/06/25 00:13:27;;;;;;;;;;;;;;;;;;;;;
2023/06/25 00:16:19;;;;;;;18.48;11.35;;;21.10;99.90;;;;;;5046651;28;20713;-77
2023/06/25 00:19:28;;;;;;;17.20;10.15;;;21.10;99.90;;;;;;5031597;28;20753;-78
2023/06/25 00:23:15;;;;;;;;;;;;;;;;;;;;;
2023/06/25 00:26:21;;;;;;;13.48;9.23;;;21.00;99.90;;;;;;4959780;28;20216;-78
2023/06/25 00:36:22;;;;;;;;;;;;;;;;;;;;;
2023/06/25 00:39:08;;;;;;;17.95;10.60;;;20.80;99.90;;;;;;5038977;28;20218;-77
2023/06/25 00:42:09;;;;;;;17.50;10.43;;;20.70;99.90;;;;;;4955103;28;20226;-77
2023/06/25 00:45:15;;;;;;;;;;;;;;;;;;;;;
2023/06/25 00:47:58;;;;;;;18.63;10.63;;;20.60;99.90;;;;;;4956372;28;20204;-76
2023/06/25 00:50:41;;;;;;;19.35;11.15;;;20.60;99.90;;;;;;4921798;28;20433;-76
2023/06/25 00:53:31;;;;;;;;;;;;;;;;;;;;;
2023/06/25 00:56:09;;;;;;;16.00;9.73;;;20.50;99.90;;;;;;5024157;28;20248;-77
2023/06/25 00:58:38;;;;;;;17.90;11.07;;;20.50;99.90;;;;;;5028973;28;20251;-77
2023/06/25 01:01:44;;;;;;;18.52;11.18;;;20.40;99.90;;;;;;5031511;28;20212;-78
2023/06/25 01:04:36;;;;;;;16.20;10.70;;;20.40;99.90;;;;;;5029326;28;20218;-77
2023/06/25 01:07:25;;;;;;;18.45;11.05;;;20.30;99.90;;;;;;5029769;28;20326;-78
2023/06/25 01:10:19;;;;;;;17.35;11.20;;;20.30;99.90;;;;;;5040288;28;20281;-77
2023/06/25 01:12:55;;;;;;;15.75;10.98;;;20.20;99.90;;;;;;5050435;28;20273;-76
2023/06/25 01:15:41;;;;;;;15.32;10.77;;;20.10;99.90;;;;;;5049960;28;20234;-76
2023/06/25 01:18:31;;;;;;;16.30;10.32;;;20.10;99.90;;;;;;5044434;28;20555;-77
2023/06/25 01:21:38;;;;;;;16.88;10.98;;;20.00;99.90;;;;;;5047349;28;20243;-77
2023/06/25 01:24:44;;;;;;;;;;;;;;;;;;;;;
2023/06/25 01:27:47;;;;;;;;;;;;;;;;;;;;;
2023/06/25 01:30:31;;;;;;;18.25;10.35;;;20.00;99.90;;;;;;5060926;28;20537;-77
2023/06/25 01:33:15;;;;;;;13.38;9.50;;;20.00;99.90;;;;;;5035318;28;20212;-76
2023/06/25 01:36:37;;;;;;;;;;;;;;;;;;;;;
2023/06/25 01:43:31;;;;;;;;;;;;;;;;;;;;;
2023/06/25 01:46:58;;;;;;;15.10;9.73;;;19.80;99.90;;;;;;4957819;28;20719;-78
2023/06/25 01:49:28;;;;;;;17.17;10.27;;;19.70;99.90;;;;;;4952716;28;20630;-77
2023/06/25 01:55:22;;;;;;;15.55;9.70;;;20.10;99.90;;;;;;4942926;28;20331;-77
2023/06/25 02:01:52;;;;;;;;;;;;;;;;;;;;;
2023/06/25 02:05:17;;;;;;;;;;;;;;;;;;;;;
2023/06/25 02:08:23;;;;;;;14.02;9.40;;;19.30;99.90;;;;;;4862862;29;20739;-78
2023/06/25 02:11:49;;;;;;;;;;;;;;;;;;;;;
2023/06/25 02:25:12;;;;;;;16.08;9.48;;;19.20;99.90;;;;;;4945037;28;20243;-77
2023/06/25 02:31:39;;;;;;;18.95;10.65;;;19.10;99.90;;;;;;4959727;28;20230;-78
2023/06/25 02:34:43;;;;;;;16.73;9.90;;;19.10;99.90;;;;;;4869592;29;20219;-78
2023/06/25 02:41:58;;;;;;;15.40;9.93;;;19.00;99.90;;;;;;4833822;29;20392;-78
2023/06/25 02:45:30;;;;;;;;;;;;;;;;;;;;;
2023/06/25 02:56:34;;;;;;;14.27;10.30;;;18.80;99.90;;;;;;4799117;29;20727;-77
2023/06/25 02:59:28;;;;;;;16.98;10.73;;;18.80;99.90;;;;;;4878687;29;20233;-78
2023/06/25 03:02:35;;;;;;;;;;;;;;;;;;;;;
2023/06/25 03:09:08;;;;;;;;;;;;;;;;;;;;;
2023/06/25 03:13:11;;;;;;;17.27;11.07;;;18.70;99.90;;;;;;4895686;29;20231;-76
2023/06/25 03:16:30;;;;;;;;;;;;;;;;;;;;;
2023/06/25 03:20:18;;;;;;;17.10;10.50;;;18.60;99.90;;;;;;4852729;29;20465;-77
2023/06/25 03:22:57;;;;;;;16.53;10.97;;;18.60;99.90;;;;;;4868480;29;20267;-77
2023/06/25 03:26:24;;;;;;;16.37;10.20;;;18.60;99.90;;;;;;4929001;29;20239;-78
2023/06/25 03:37:46;;;;;;;;;;;;;;;;;;;;;
2023/06/25 03:40:25;;;;;;;14.53;10.07;;;18.40;99.90;;;;;;4822043;29;20255;-77
2023/06/25 03:42:52;;;;;;;16.10;9.53;;;18.60;99.90;;;;;;4853610;29;20226;-77
2023/06/25 03:45:19;;;;;;;16.37;10.93;;;18.50;99.90;;;;;;4839201;29;20227;-76
2023/06/25 03:47:53;;;;;;;14.55;9.13;;;18.60;99.90;;;;;;4909862;29;20320;-78
2023/06/25 03:50:52;;;;;;;14.83;9.23;;;18.60;99.90;;;;;;4925272;28;20208;-76
2023/06/25 03:53:47;;;;;;;;;;;;;;;;;;;;;
2023/06/25 04:00:24;;;;;;;;;;;;;;;;;;;;;
2023/06/25 04:03:33;;;;;;;;;;;;;;;;;;;;;
2023/06/25 04:06:49;;;;;;;18.87;11.17;;;18.50;99.90;;;;;;4960565;28;20264;-79
2023/06/25 04:13:40;;;;;;;21.47;11.70;;;18.60;99.90;;;;;;4956981;28;20588;-78
2023/06/25 04:21:42;;;;;;;;;;;;;;;;;;;;;
2023/06/25 04:25:12;;;;;;;15.73;10.40;;;18.60;99.90;;;;;;4834143;29;20378;-78
2023/06/25 04:27:56;;;;;;;19.88;11.63;;;18.70;99.90;;;;;;4830289;29;20674;-77
2023/06/25 04:37:56;;;;;;;23.98;12.07;;;18.70;99.90;;;;;;4799588;29;20199;-77
2023/06/25 04:44:58;;;;;;;;;;;;;;;;;;;;;
2023/06/25 04:52:06;;;;;;;;;;;;;;;;;;;;;
2023/06/25 04:55:32;;;;;;;;;;;;;;;;;;;;;
2023/06/25 04:58:16;;;;;;;19.20;12.63;;;19.00;99.90;;;;;;4857050;29;20306;-78
2023/06/25 05:01:18;;;;;;;17.58;11.07;;;19.20;99.90;;;;;;4884444;28;20424;-77
2023/06/25 05:11:58;;;;;;;20.67;13.63;;;19.40;99.90;;;;;;4885956;29;20222;-76
2023/06/25 05:22:24;;;;;;;20.20;13.35;;;19.60;99.90;;;;;;4888701;29;20224;-76
2023/06/25 05:29:02;;;;;;;19.05;12.68;;;20.10;99.90;;;;;;4926428;28;20250;-76
2023/06/25 05:32:20;;;;;;;;;;;;;;;;;;;;;
2023/06/25 05:39:29;;;;;;;16.73;11.70;;;24.60;99.90;;;;;;4888754;29;20233;-78
2023/06/25 05:49:38;;;;;;;16.48;11.18;;;28.90;99.90;;;;;;4925087;29;20279;-78
2023/06/25 05:52:34;;;;;;;15.32;10.90;;;;;;;;;;4923780;29;20608;-78
2023/06/25 05:55:47;;;;;;;15.60;11.20;;;30.30;99.90;;;;;;4940949;28;20220;-77
2023/06/25 05:59:10;;;;;;;14.25;10.90;;;31.20;99.90;;;;;;4931790;29;20250;-79
2023/06/25 06:06:02;;;;;;;15.88;11.05;;;32.30;99.90;;;;;;4869176;29;20246;-77
2023/06/25 06:09:17;;;;;;;13.27;10.55;;;32.60;99.90;;;;;;4894095;29;20246;-77
2023/06/25 06:11:59;;;;;;;13.52;10.60;;;32.90;99.90;;;;;;4913253;29;20826;-78
2023/06/25 06:15:00;;;;;;;;;;;;;;;;;;;;;
2023/06/25 06:17:53;;;;;;;15.23;11.38;;;33.60;99.90;;;;;;4893823;29;20244;-78
2023/06/25 06:20:55;;;;;;;16.02;10.90;;;34.00;99.90;;;;;;4838899;29;20302;-78
2023/06/25 06:23:42;;;;;;;13.75;11.13;;;34.30;99.90;;;;;;4958576;28;20223;-78
2023/06/25 06:26:13;;;;;;;15.45;10.63;;;34.60;99.90;;;;;;4983335;28;20210;-78
2023/06/25 06:28:41;;;;;;;11.90;10.07;;;34.90;99.90;;;;;;4980930;28;20207;-78
2023/06/25 06:31:27;;;;;;;13.70;10.98;;;35.00;99.90;;;;;;4970624;28;20227;-78
2023/06/25 06:34:02;;;;;;;10.73;9.63;;;35.20;99.10;;;;;;4972808;28;20234;-81
2023/06/25 06:37:01;;;;;;;13.25;10.27;;;35.50;99.90;;;;;;4975400;28;20214;-78
2023/06/25 06:39:43;;;;;;;14.52;10.23;;;35.60;98.60;;;;;;4989463;28;20241;-80
2023/06/25 06:42:13;;;;;;;12.98;10.93;;;35.70;98.00;;;;;;4978684;28;20244;-78
2023/06/25 06:44:50;;;;;;;14.00;10.88;;;35.70;97.60;;;;;;5041967;28;20259;-78
2023/06/25 06:47:17;;;;;;;13.85;10.85;;;35.60;97.20;;;;;;5033589;28;20208;-77
2023/06/25 06:49:46;;;;;;;11.75;10.02;;;35.90;96.80;;;;;;5033722;28;20237;-78
2023/06/25 06:52:15;;;;;;;13.57;10.80;;;35.90;96.30;;;;;;5033633;28;20208;-77
2023/06/25 06:54:46;;;;;;;12.95;10.85;;;35.80;96.40;;;;;;5033845;28;20286;-77
2023/06/25 06:57:14;;;;;;;12.57;9.95;;;36.00;95.70;;;;;;5049985;28;20380;-78
2023/06/25 06:59:44;;;;;;;12.38;10.25;;;36.20;94.70;;;;;;5033529;28;20247;-77
2023/06/25 07:02:14;;;;;;;12.15;9.75;;;36.20;93.80;;;;;;5033849;28;20205;-77
2023/06/25 07:04:42;;;;;;;12.55;10.25;;;36.20;93.50;;;;;;5033100;28;20232;-76
2023/06/25 07:07:18;;;;;;;12.35;10.10;;;36.30;93.40;;;;;;5033148;28;20677;-77
2023/06/25 07:09:55;;;;;;;12.10;9.43;;;36.50;93.10;;;;;;5044749;28;20242;-78
2023/06/25 07:12:27;;;;;;;12.52;10.32;;;36.70;92.70;;;;;;5053693;28;20222;-77
2023/06/25 07:14:56;;;;;;;11.88;9.80;;;36.70;92.40;;;;;;5053649;28;20211;-77
2023/06/25 07:17:25;;;;;;;12.90;10.32;;;36.70;92.10;;;;;;5053512;28;20316;-77
2023/06/25 07:19:52;;;;;;;12.38;9.75;;;36.70;91.90;;;;;;5052998;28;20661;-77
2023/06/25 07:22:20;;;;;;;10.60;9.32;;;36.50;91.40;;;;;;5053212;28;20341;-78
2023/06/25 07:24:56;;;;;;;10.57;8.98;;;36.50;91.20;;;;;;5053354;28;20220;-77
2023/06/25 07:27:49;;;;;;;10.50;8.90;;;36.50;90.90;;;;;;5053618;28;20215;-77
2023/06/25 07:30:35;;;;;;;11.15;9.73;;;36.70;89.20;;;;;;5047269;28;20200;-78
2023/06/25 07:33:24;;;;;;;11.55;9.95;;;36.90;90.00;;;;;;5045039;28;20234;-76
2023/06/25 07:35:54;;;;;;;12.18;9.00;;;36.90;89.00;;;;;;5051774;28;20211;-78
2023/06/25 07:38:31;;;;;;;12.82;9.57;;;37.00;88.10;;;;;;5052774;28;20242;-77
2023/06/25 07:41:02;;;;;;;12.13;10.10;;;36.90;87.40;;;;;;5061333;28;20207;-77
2023/06/25 07:43:34;;;;;;;10.85;9.25;;;36.70;87.70;;;;;;5052444;28;20649;-79
2023/06/25 07:46:02;;;;;;;10.80;9.02;;;36.60;87.30;;;;;;5052990;28;20223;-77
2023/06/25 07:48:32;;;;;;;12.52;9.55;;;36.60;87.10;;;;;;5053122;28;20235;-77
2023/06/25 07:51:04;;;;;;;11.75;9.23;;;36.60;86.60;;;;;;5052394;28;20655;-77
2023/06/25 07:53:33;;;;;;;11.05;9.38;;;36.50;86.90;;;;;;5052938;28;20650;-78
2023/06/25 07:56:03;;;;;;;14.88;9.18;;;36.40;86.90;;;;;;5059407;28;20200;-79
2023/06/25 07:58:31;;;;;;;9.93;8.68;;;36.50;87.20;;;;;;5059992;28;20235;-78
2023/06/25 08:01:06;;;;;;;11.68;8.40;;;36.50;86.70;;;;;;5059706;28;20222;-79
2023/06/25 08:03:46;;;;;;;10.23;7.65;;;36.50;85.90;;;;;;5055497;28;20544;-77
2023/06/25 08:06:14;;;;;;;9.85;8.05;;;36.40;84.90;;;;;;5059011;28;20541;-80
2023/06/25 08:08:44;;;;;;;9.73;8.05;;;36.20;84.60;;;;;;5050165;28;20235;-78
2023/06/25 08:11:26;;;;;;;8.73;7.50;;;36.00;85.10;;;;;;5051153;28;20238;-78
2023/06/25 08:14:00;;;;;;;8.95;7.72;;;35.80;85.40;;;;;;5052376;28;20217;-77
2023/06/25 08:16:30;;;;;;;9.55;7.55;;;35.70;86.10;;;;;;5052548;28;20691;-77
2023/06/25 08:18:58;;;;;;;10.10;8.05;;;35.70;85.90;;;;;;5051973;28;20644;-76
2023/06/25 08:21:48;;;;;;;9.98;7.55;;;35.80;85.50;;;;;;5055287;28;20208;-78
2023/06/25 08:24:19;;;;;;;9.55;7.53;;;35.80;85.40;;;;;;5052293;28;20220;-77
2023/06/25 08:26:52;;;;;;;8.52;7.43;;;35.80;85.10;;;;;;5051735;28;20206;-76
2023/06/25 08:29:22;;;;;;;11.95;7.68;;;35.80;84.60;;;;;;5051975;28;20266;-77
2023/06/25 08:31:53;;;;;;;9.52;7.57;;;35.80;83.70;;;;;;5052063;28;20218;-76
2023/06/25 08:34:32;;;;;;;8.55;6.95;;;35.80;84.10;;;;;;5052029;28;20261;-76
2023/06/25 08:37:17;;;;;;;7.97;7.13;;;35.80;83.70;;;;;;5051302;28;20203;-78
2023/06/25 08:40:20;;;;;;;9.35;7.38;;;35.80;83.50;;;;;;5051389;28;20256;-77
2023/06/25 08:43:27;;;;;;;;;;;;;;;;;;;;;
2023/06/25 08:46:20;;;;;;;8.65;7.28;;;35.50;84.50;;;;;;5075019;28;20391;-77
2023/06/25 08:48:56;;;;;;;9.52;7.38;;;35.30;82.50;;;;;;5057210;28;20660;-78
2023/06/25 08:51:25;;;;;;;10.57;7.68;;;35.10;83.60;;;;;;5053978;28;20216;-80
2023/06/25 08:54:03;;;;;;;8.90;7.15;;;35.00;83.80;;;;;;5057872;28;20251;-75
2023/06/25 08:56:33;;;;;;;8.38;6.45;;;35.10;84.40;;;;;;5057241;28;20215;-76
2023/06/25 08:59:20;;;;;;;7.25;5.95;;;35.20;84.80;;;;;;5046226;28;20945;-78
2023/06/25 09:02:01;;;;;;;9.18;6.72;;;35.30;84.00;;;;;;5052179;28;20208;-77
2023/06/25 09:04:34;;;;;;;7.32;5.88;;;35.50;83.00;;;;;;5046222;28;20689;-78
2023/06/25 09:07:08;;;;;;;9.55;5.97;;;35.60;81.80;;;;;;5051341;28;20273;-78
2023/06/25 09:09:39;;;;;;;7.03;5.72;;;35.50;81.40;;;;;;5051031;28;20236;-78
2023/06/25 09:12:09;;;;;;;8.32;6.50;;;35.50;81.40;;;;;;5051626;28;20253;-79
2023/06/25 09:14:48;;;;;;;8.65;6.00;;;35.40;81.70;;;;;;5052632;28;20277;-76
2023/06/25 09:17:22;;;;;;;9.90;5.72;;;35.30;82.50;;;;;;5051626;28;20203;-77
2023/06/25 09:20:31;;;;;;;7.28;5.80;;;35.30;82.20;;;;;;5050428;28;20231;-77
2023/06/25 09:23:18;;;;;;;6.95;5.28;;;35.20;81.20;;;;;;5051009;28;20711;-78
2023/06/25 09:26:05;;;;;;;6.18;5.57;;;35.00;81.50;;;;;;5051523;28;20272;-78
2023/06/25 09:28:59;;;;;;;7.45;5.82;;;34.90;80.60;;;;;;5035029;28;20216;-77
2023/06/25 09:32:42;;;;;;;6.40;5.05;;;34.60;80.90;;;;;;5051250;28;20236;-78
2023/06/25 09:36:04;;;;;;;;;;;;;;;;;;;;;
2023/06/25 09:39:23;;;;;;;6.35;4.65;;;34.30;82.70;;;;;;5066757;28;20237;-77
2023/06/25 09:42:04;;;;;;;6.00;4.60;;;34.10;82.10;;;;;;5049574;28;20722;-77
2023/06/25 09:44:56;;;;;;;6.47;4.97;;;34.20;82.30;;;;;;5051516;28;20542;-78
2023/06/25 09:47:32;;;;;;;6.15;4.78;;;34.20;82.30;;;;;;5044877;28;20212;-77
2023/06/25 09:49:59;;;;;;;5.30;4.50;;;34.20;82.00;;;;;;5050487;28;20208;-77
2023/06/25 09:52:38;;;;;;;5.90;4.97;;;34.30;82.20;;;;;;5050494;28;20629;-79
2023/06/25 09:55:10;;;;;;;5.78;4.82;;;34.60;81.30;;;;;;5050345;28;20680;-78
2023/06/25 09:58:14;;;;;;;6.32;4.50;;;34.70;79.70;;;;;;5045388;28;20219;-78
2023/06/25 10:00:57;;;;;;;;;;;;;;;;;;;;;
2023/06/25 10:03:52;;;;;;;6.82;5.00;;;34.70;77.70;;;;;;5068341;28;20193;-77
2023/06/25 10:06:49;;;;;;;7.80;5.47;;;34.80;78.10;;;;;;5048167;28;20211;-78
2023/06/25 10:10:36;;;;;;;;;;;;;;;;;;;;;
2023/06/25 10:13:28;;;;;;;5.20;4.20;;;34.60;78.70;;;;;;5042615;28;20688;-78
2023/06/25 10:19:49;;;;;;;;;;;;;;;;;;;;;
2023/06/25 10:22:46;;;;;;;7.90;5.30;;;34.20;79.40;;;;;;5059285;28;20659;-76
2023/06/25 10:25:56;;;;;;;7.53;5.57;;;34.20;78.60;;;;;;5048326;28;20204;-79
2023/06/25 10:29:12;;;;;;;;;;;;;;;;;;;;;
2023/06/25 10:32:04;;;;;;;6.00;4.72;;;34.20;79.70;;;;;;5066114;28;20224;-77
2023/06/25 10:35:06;;;;;;;;;;;;;;;;;;;;;
2023/06/25 10:38:16;;;;;;;;;;;;;;;;;;;;;
2023/06/25 10:40:58;;;;;;;;;;;;;;;;;;;;;
2023/06/25 10:43:39;;;;;;;6.15;5.00;;;34.00;80.80;;;;;;5071374;28;20208;-78
2023/06/25 10:46:09;;;;;;;7.10;5.78;;;33.90;80.40;;;;;;5045852;28;20219;-76
2023/06/25 10:48:46;;;;;;;6.03;4.78;;;33.90;80.70;;;;;;5055772;28;20219;-78
2023/06/25 10:51:27;;;;;;;7.30;6.30;;;33.80;81.70;;;;;;5055019;28;20200;-77
2023/06/25 10:54:00;;;;;;;8.55;6.55;;;33.70;81.80;;;;;;5071428;28;20270;-76
2023/06/25 10:57:13;;;;;;;7.32;5.03;;;33.70;82.40;;;;;;5054201;28;20208;-76
2023/06/25 10:59:44;;;;;;;6.88;5.05;;;33.60;82.20;;;;;;5041687;28;20268;-77
2023/06/25 11:02:31;;;;;;;5.93;5.00;;;33.40;82.20;;;;;;5054350;28;20204;-77
2023/06/25 11:05:03;;;;;;;9.25;7.15;;;33.60;82.90;;;;;;5070776;28;20212;-76
2023/06/25 11:07:31;;;;;;;7.68;5.80;;;33.30;83.10;;;;;;5063127;28;20208;-79
2023/06/25 11:10:02;;;;;;;6.72;5.70;;;33.20;83.40;;;;;;5062088;28;20238;-78
2023/06/25 11:12:33;;;;;;;6.05;5.07;;;33.10;83.10;;;;;;5054931;28;20201;-78
2023/06/25 11:15:22;;;;;;;7.63;5.07;;;33.10;83.00;;;;;;5047880;28;20223;-77
2023/06/25 11:18:08;;;;;;;;;;;;;;;;;;;;;
2023/06/25 11:20:46;;;;;;;7.90;5.70;;;32.90;81.80;;;;;;5070758;28;20243;-77
2023/06/25 11:23:19;;;;;;;7.88;5.13;;;32.80;82.20;;;;;;5053591;28;20334;-77
2023/06/25 11:25:50;;;;;;;6.15;5.32;;;32.80;82.50;;;;;;5053589;28;20212;-75
2023/06/25 11:28:18;;;;;;;7.07;5.25;;;32.90;83.30;;;;;;5053197;28;20664;-75
2023/06/25 11:31:31;;;;;;;;;;;;;;;;;;;;;
2023/06/25 11:33:58;;;;;;;7.80;5.88;;;33.10;83.30;;;;;;5069506;28;20200;-77
2023/06/25 11:36:25;;;;;;;6.13;5.45;;;33.30;83.20;;;;;;5053137;28;20211;-76
2023/06/25 11:38:52;;;;;;;7.10;5.38;;;33.30;82.90;;;;;;5069259;28;20232;-74
2023/06/25 11:41:37;;;;;;;;;;;;;;;;;;;;;
2023/06/25 11:44:36;;;;;;;8.98;5.72;;;33.40;82.90;;;;;;5070720;28;20224;-76
2023/06/25 11:47:17;;;;;;;6.80;5.60;;;33.40;84.50;;;;;;5043919;28;20222;-77
2023/06/25 11:49:55;;;;;;;6.65;5.28;;;33.40;84.30;;;;;;5053193;28;20208;-76
2023/06/25 11:52:23;;;;;;;6.47;5.28;;;33.50;84.30;;;;;;5052409;28;20204;-76
2023/06/25 11:55:01;;;;;;;7.25;5.93;;;33.60;83.80;;;;;;5053546;28;20261;-74
2023/06/25 11:57:28;;;;;;;6.43;4.75;;;33.60;83.70;;;;;;5052879;28;20212;-76
2023/06/25 11:59:55;;;;;;;5.90;5.10;;;33.50;83.80;;;;;;5052307;28;20241;-77
2023/06/25 12:02:24;;;;;;;6.63;5.25;;;33.60;83.90;;;;;;5052025;28;20200;-75
2023/06/25 12:05:15;;;;;;;6.00;5.15;;;33.60;83.90;;;;;;5069027;28;20342;-75
2023/06/25 12:07:46;;;;;;;12.23;8.75;;;33.60;83.80;;;;;;5061694;28;20212;-78
2023/06/25 12:10:17;;;;;;;7.88;6.50;;;33.60;84.30;;;;;;5050923;28;20239;-75
2023/06/25 12:12:58;;;;;;;;;;;;;;;;;;;;;
2023/06/25 12:15:44;;;;;;;8.25;6.15;;;33.60;85.10;;;;;;5069154;28;20235;-77
2023/06/25 12:18:11;;;;;;;7.10;4.90;;;33.60;84.40;;;;;;5051882;28;20300;-77
2023/06/25 12:20:44;;;;;;;7.20;5.20;;;33.70;84.40;;;;;;5051196;28;20232;-77
2023/06/25 12:23:11;;;;;;;8.13;5.63;;;33.80;84.20;;;;;;5050518;28;20224;-76
2023/06/25 12:25:39;;;;;;;9.02;5.78;;;33.90;84.50;;;;;;5050841;28;20212;-76
2023/06/25 12:28:12;;;;;;;8.13;6.60;;;33.90;84.10;;;;;;5050577;28;20673;-77
2023/06/25 12:30:56;;;;;;;6.18;5.20;;;33.80;84.60;;;;;;5050584;28;20649;-76
2023/06/25 12:33:33;;;;;;;7.20;5.15;;;33.70;84.70;;;;;;5051065;28;20220;-78
2023/06/25 12:36:05;;;;;;;5.97;5.10;;;33.70;84.60;;;;;;5043213;28;20230;-79
2023/06/25 12:38:41;;;;;;;5.65;4.75;;;33.70;84.60;;;;;;5067447;28;20638;-76
2023/06/25 12:41:10;;;;;;;5.97;4.70;;;33.80;84.20;;;;;;5050529;28;20282;-76
2023/06/25 12:43:46;;;;;;;5.78;5.00;;;33.80;83.80;;;;;;5052118;28;20277;-77
2023/06/25 12:46:21;;;;;;;5.90;5.03;;;33.80;83.40;;;;;;5050785;28;20212;-78
2023/06/25 12:48:50;;;;;;;6.22;5.22;;;33.70;83.00;;;;;;5050230;28;20204;-78
2023/06/25 12:54:35;;;;;;;5.82;4.70;;;33.70;83.20;;;;;;5062260;28;20303;-78
2023/06/25 12:57:31;;;;;;;4.80;4.28;;;33.80;79.70;;;;;;4965797;28;20306;-77
2023/06/25 13:00:11;;;;;;;5.35;4.65;;;33.90;79.20;;;;;;5047433;28;20232;-77
2023/06/25 13:03:22;;;;;;;5.10;4.18;;;34.20;78.30;;;;;;5052737;28;20212;-76
2023/06/25 13:06:05;;;;;;;4.45;4.05;;;34.50;76.40;;;;;;4989480;28;20723;-78
2023/06/25 13:09:29;;;;;;;6.82;4.10;;;34.60;74.70;;;;;;5023531;28;20227;-76
2023/06/25 13:12:00;;;;;;;6.18;4.28;;;34.40;74.90;;;;;;5063902;28;20247;-77
2023/06/25 13:14:56;;;;;;;6.05;4.65;;;34.30;75.80;;;;;;5050852;28;20237;-75
2023/06/25 13:17:28;;;;;;;5.28;4.35;;;34.70;77.40;;;;;;5045407;28;20216;-76
2023/06/25 13:19:57;;;;;;;5.40;3.80;;;34.50;76.50;;;;;;5050248;28;20231;-77
2023/06/25 13:22:43;;;;;;;;;;;;;;;;;;;;;
2023/06/25 13:25:13;;;;;;;6.53;4.43;;;34.80;74.10;;;;;;5052103;28;20260;-75
2023/06/25 13:27:41;;;;;;;4.97;4.05;;;34.90;73.70;;;;;;5058053;28;20664;-77
2023/06/25 13:30:09;;;;;;;6.05;4.68;;;35.00;73.30;;;;;;5050274;28;20216;-77
2023/06/25 13:32:36;;;;;;;5.05;4.05;;;35.00;72.90;;;;;;5049247;28;20299;-77
2023/06/25 13:35:04;;;;;;;4.70;4.20;;;35.00;72.70;;;;;;5049782;28;20560;-75
2023/06/25 13:37:31;;;;;;;5.03;3.42;;;35.00;72.20;;;;;;5050240;28;20294;-75
2023/06/25 13:39:59;;;;;;;4.65;3.83;;;35.10;71.60;;;;;;5053193;28;20248;-76
2023/06/25 13:42:37;;;;;;;4.90;3.80;;;35.20;71.40;;;;;;5050079;28;20235;-76
2023/06/25 13:45:09;;;;;;;4.57;3.60;;;35.30;71.10;;;;;;5049222;28;20212;-76
2023/06/25 13:47:37;;;;;;;6.10;4.50;;;35.30;70.80;;;;;;5050033;28;20657;-76
2023/06/25 13:50:15;;;;;;;5.53;3.88;;;35.40;70.80;;;;;;5041154;28;20736;-77
2023/06/25 13:52:43;;;;;;;4.97;4.20;;;35.40;71.20;;;;;;5049748;28;20200;-76
2023/06/25 13:55:13;;;;;;;4.55;3.92;;;35.50;71.00;;;;;;5049253;28;20260;-75
2023/06/25 13:57:42;;;;;;;4.80;3.80;;;35.50;70.90;;;;;;5049850;28;20216;-76
2023/06/25 14:00:17;;;;;;;5.03;4.20;;;35.40;70.70;;;;;;5050263;28;20232;-76
2023/06/25 14:02:45;;;;;;;5.82;4.47;;;35.40;70.80;;;;;;5049768;28;20224;-77
2023/06/25 14:05:22;;;;;;;5.55;4.65;;;35.50;70.80;;;;;;5051225;28;20208;-77
2023/06/25 14:07:49;;;;;;;5.25;3.97;;;35.50;71.00;;;;;;5048906;28;20204;-76
2023/06/25 14:10:16;;;;;;;4.20;3.80;;;35.60;70.80;;;;;;5049273;28;20240;-76
2023/06/25 14:12:43;;;;;;;6.13;4.10;;;35.80;70.60;;;;;;5049947;28;20230;-77
2023/06/25 14:15:10;;;;;;;4.65;3.97;;;35.90;70.10;;;;;;5067415;28;20208;-76
2023/06/25 14:17:36;;;;;;;5.07;4.05;;;35.80;70.00;;;;;;5052622;28;20200;-77
2023/06/25 14:20:07;;;;;;;5.18;4.28;;;35.70;71.10;;;;;;5052900;28;20327;-77
2023/06/25 14:22:33;;;;;;;4.82;4.05;;;35.60;70.60;;;;;;5053293;28;20316;-76
2023/06/25 14:25:02;;;;;;;5.63;4.60;;;35.70;69.90;;;;;;5061794;28;20217;-77
2023/06/25 14:27:29;;;;;;;5.25;4.10;;;35.70;69.00;;;;;;5053788;28;20204;-76
2023/06/25 14:29:56;;;;;;;4.10;3.63;;;35.60;68.90;;;;;;5053264;28;20222;-76
2023/06/25 14:32:23;;;;;;;4.60;3.72;;;35.50;69.10;;;;;;5053923;28;20695;-75
2023/06/25 14:34:50;;;;;;;5.53;4.70;;;35.60;69.30;;;;;;5054131;28;20757;-76
2023/06/25 14:37:17;;;;;;;5.38;4.25;;;35.60;69.50;;;;;;5053329;28;20204;-78
2023/06/25 14:39:47;;;;;;;4.10;3.70;;;35.50;68.60;;;;;;5058811;28;20220;-77
2023/06/25 14:42:14;;;;;;;4.95;4.22;;;35.40;68.40;;;;;;5053383;28;20218;-77
2023/06/25 14:44:47;;;;;;;5.50;4.35;;;35.30;69.40;;;;;;5052702;28;20217;-80
2023/06/25 14:47:14;;;;;;;4.88;4.20;;;35.20;69.70;;;;;;5053078;28;20204;-77
2023/06/25 14:49:42;;;;;;;6.97;4.97;;;35.20;70.10;;;;;;5052917;28;20239;-77
2023/06/25 14:52:09;;;;;;;5.68;4.30;;;35.30;70.20;;;;;;5049137;28;20531;-77
2023/06/25 14:54:36;;;;;;;4.88;3.85;;;35.40;70.00;;;;;;5066891;28;20220;-77
2023/06/25 14:57:06;;;;;;;5.03;3.78;;;35.60;69.50;;;;;;5052123;28;20250;-77
2023/06/25 14:59:36;;;;;;;6.15;4.05;;;35.60;68.50;;;;;;5052576;28;20291;-77
2023/06/25 15:02:08;;;;;;;5.80;4.20;;;35.70;68.60;;;;;;5044851;28;20270;-78
2023/06/25 15:04:36;;;;;;;4.55;3.72;;;35.80;68.70;;;;;;5070757;28;20250;-76
2023/06/25 15:07:03;;;;;;;5.18;4.20;;;35.60;68.70;;;;;;5051880;28;20285;-76
2023/06/25 15:09:30;;;;;;;5.30;4.32;;;35.60;67.90;;;;;;5070072;28;20232;-77
2023/06/25 15:11:57;;;;;;;4.95;4.30;;;35.40;68.20;;;;;;5051451;28;20220;-76
2023/06/25 15:14:24;;;;;;;5.18;4.60;;;35.30;68.30;;;;;;5052619;28;20220;-76
2023/06/25 15:16:51;;;;;;;4.80;4.00;;;35.20;68.50;;;;;;5052432;28;20220;-78
2023/06/25 15:19:21;;;;;;;5.38;4.47;;;35.30;68.70;;;;;;5052328;28;20283;-76
2023/06/25 15:21:50;;;;;;;5.50;4.88;;;35.40;69.10;;;;;;5051804;28;20655;-75
2023/06/25 15:24:17;;;;;;;4.63;4.13;;;35.60;69.10;;;;;;5051738;28;20239;-76
2023/06/25 15:26:44;;;;;;;6.03;4.75;;;35.70;69.40;;;;;;5051932;28;20672;-78
2023/06/25 15:29:11;;;;;;;5.10;4.60;;;35.70;69.70;;;;;;5051190;28;20559;-76
2023/06/25 15:31:38;;;;;;;5.25;4.30;;;35.80;69.90;;;;;;5051029;28;20509;-77
2023/06/25 15:34:05;;;;;;;5.10;4.53;;;35.90;69.40;;;;;;5052192;28;20204;-76
2023/06/25 15:36:34;;;;;;;5.03;4.18;;;35.90;68.30;;;;;;5060259;28;20213;-76
2023/06/25 15:39:06;;;;;;;5.43;4.40;;;35.80;68.20;;;;;;5059944;28;20270;-78
2023/06/25 15:41:33;;;;;;;5.03;4.53;;;35.50;67.50;;;;;;5040082;28;20260;-76
2023/06/25 15:44:00;;;;;;;7.03;5.00;;;35.50;68.20;;;;;;5042400;28;20217;-76
2023/06/25 15:46:27;;;;;;;6.20;4.65;;;35.30;68.30;;;;;;5060495;28;20278;-77
2023/06/25 15:48:54;;;;;;;5.13;4.63;;;35.30;68.40;;;;;;5059546;28;20571;-79
2023/06/25 15:51:21;;;;;;;5.85;4.90;;;35.20;67.80;;;;;;5051142;28;20205;-77
2023/06/25 15:53:48;;;;;;;5.75;4.55;;;35.10;67.50;;;;;;5051480;28;20523;-76
2023/06/25 15:56:17;;;;;;;4.65;3.78;;;34.90;67.90;;;;;;5048176;28;20236;-76
2023/06/25 15:58:44;;;;;;;5.03;4.47;;;34.80;67.30;;;;;;5048962;28;20209;-77
2023/06/25 16:01:11;;;;;;;5.00;4.50;;;34.70;67.20;;;;;;5048039;28;20232;-78
2023/06/25 16:03:38;;;;;;;5.00;4.40;;;34.50;67.20;;;;;;5048213;28;20197;-76
2023/06/25 16:06:13;;;;;;;5.72;4.32;;;34.50;67.50;;;;;;5055798;28;20665;-76
2023/06/25 16:08:43;;;;;;;5.28;4.78;;;34.50;67.10;;;;;;5047853;28;20223;-75
2023/06/25 16:11:13;;;;;;;9.57;4.70;;;34.60;67.10;;;;;;5051683;28;20639;-76
2023/06/25 16:13:40;;;;;;;5.22;4.35;;;34.60;67.30;;;;;;5050590;28;20223;-76
2023/06/25 16:16:07;;;;;;;5.00;4.47;;;34.60;67.10;;;;;;5051320;28;20212;-76
2023/06/25 16:18:34;;;;;;;5.78;4.60;;;34.50;67.20;;;;;;5051119;28;20744;-76
2023/06/25 16:21:01;;;;;;;5.05;4.55;;;34.50;67.50;;;;;;5050764;28;20704;-77
2023/06/25 16:23:28;;;;;;;6.15;4.38;;;34.30;67.70;;;;;;5051390;28;20228;-75
2023/06/25 16:25:55;;;;;;;6.07;5.40;;;34.30;68.10;;;;;;5050393;28;20539;-74
2023/06/25 16:28:26;;;;;;;4.97;4.45;;;34.30;68.70;;;;;;5067854;28;20669;-73
2023/06/25 16:30:53;;;;;;;5.20;4.70;;;34.50;68.80;;;;;;5068543;28;20644;-76
2023/06/25 16:33:20;;;;;;;6.13;4.50;;;34.60;69.00;;;;;;5050680;28;20205;-75
2023/06/25 16:35:47;;;;;;;5.78;4.45;;;34.60;68.70;;;;;;5068392;28;20609;-76
2023/06/25 16:38:14;;;;;;;6.57;4.80;;;34.70;68.70;;;;;;5050394;28;20691;-76
2023/06/25 16:40:41;;;;;;;5.00;4.50;;;34.70;68.10;;;;;;5049198;28;20326;-77
2023/06/25 16:43:09;;;;;;;5.72;4.95;;;34.80;68.60;;;;;;5050807;28;20208;-75
2023/06/25 16:45:38;;;;;;;8.88;4.90;;;34.80;69.30;;;;;;5050779;28;20221;-76
2023/06/25 16:48:07;;;;;;;5.68;4.78;;;34.80;69.90;;;;;;5042596;28;20212;-76
2023/06/25 16:50:36;;;;;;;23.80;18.02;;;34.80;70.20;;;;;;5050229;28;20213;-75
2023/06/25 16:53:05;;;;;;;6.80;5.85;;;34.80;70.10;;;;;;5051951;28;20256;-76
2023/06/25 16:55:32;;;;;;;5.90;5.30;;;34.90;70.10;;;;;;5050682;28;20266;-76